Time;durP1;ratioP1;P1;durP2;ratioP2;P2;SDS_P1;SDS_P2;PMS_P1;PMS_P2;Temp;Humidity;BMP_temperature;BMP_pressure;BME280_temperature;BME280_humidity;BME280_pressure;Samples;Min_cycle;Max_cycle;Signal;HPM_P1;HPM_P2
2023/01/30 00:01:17;;;;;;;6.57;5.55;;;;;;;17.74;39.79;101561.00;5007801;28;20025;-60
2023/01/30 00:03:42;;;;;;;8.32;6.05;;;;;;;17.74;39.49;101567.22;5003824;28;20460;-58
2023/01/30 00:06:07;;;;;;;8.75;6.13;;;;;;;17.74;39.60;101563.69;5003645;28;20057;-56
2023/01/30 00:08:32;;;;;;;6.00;5.35;;;;;;;17.72;39.54;101554.91;5003723;28;20053;-57
2023/01/30 00:11:06;;;;;;;7.20;5.70;;;;;;;17.72;39.56;101541.44;5008834;28;20041;-59
2023/01/30 00:13:31;;;;;;;7.43;6.22;;;;;;;17.70;39.82;101536.19;5023278;28;20033;-58
2023/01/30 00:15:57;;;;;;;8.98;6.28;;;;;;;17.71;39.71;101526.28;5023481;28;20022;-59
2023/01/30 00:18:22;;;;;;;7.13;5.60;;;;;;;17.71;39.57;101519.09;5023222;28;20765;-60
2023/01/30 00:20:47;;;;;;;7.43;6.25;;;;;;;17.70;39.75;101544.28;5019127;28;20026;-59
2023/01/30 00:23:12;;;;;;;8.13;6.25;;;;;;;17.69;39.48;101537.19;5022463;28;20045;-60
2023/01/30 00:25:38;;;;;;;6.55;5.70;;;;;;;17.71;39.60;101531.66;5027144;28;20029;-60
2023/01/30 00:28:03;;;;;;;6.50;5.20;;;;;;;17.69;39.75;101523.75;5027360;28;20529;-60
2023/01/30 00:30:28;;;;;;;5.82;5.22;;;;;;;17.58;39.80;101494.34;5026503;28;20034;-60
2023/01/30 00:32:58;;;;;;;6.80;5.28;;;;;;;17.69;39.62;101514.84;5022068;28;20034;-58
2023/01/30 00:35:27;;;;;;;6.25;4.93;;;;;;;17.68;39.82;101515.84;5026883;28;20104;-59
2023/01/30 00:37:52;;;;;;;;;;;;;;;17.68;39.68;101505.09;5027237;28;20018;-60
2023/01/30 00:40:17;;;;;;;7.07;5.65;;;;;;;17.64;39.72;101499.16;5027124;28;19965;-60
2023/01/30 00:48:10;;;;;;;6.70;5.95;;;;;;;17.65;39.78;101465.88;5002404;28;20044;-58
2023/01/30 00:50:42;;;;;;;6.53;5.60;;;;;;;17.65;39.78;101471.25;5008609;28;20034;-58
2023/01/30 00:53:12;;;;;;;7.68;5.93;;;;;;;17.65;39.95;101471.25;5025692;28;20030;-60
2023/01/30 00:55:37;;;;;;;6.35;5.75;;;;;;;17.64;39.93;101464.19;5008864;28;20046;-61
2023/01/30 00:58:03;;;;;;;6.88;5.82;;;;;;;17.65;39.69;101438.16;5026794;28;20029;-61
2023/01/30 01:00:28;;;;;;;5.95;5.20;;;;;;;17.65;39.96;101443.53;5025890;28;20065;-58
2023/01/30 01:02:54;;;;;;;6.57;5.35;;;;;;;17.65;39.82;101440.84;5006861;28;20041;-59
2023/01/30 01:05:19;;;;;;;7.45;5.72;;;;;;;17.65;39.93;101443.53;5006957;28;20125;-61
2023/01/30 01:07:44;;;;;;;5.85;5.22;;;;;;;17.64;39.72;101429.22;5006575;28;20022;-61
2023/01/30 01:10:15;;;;;;;6.60;5.68;;;;;;;17.64;39.67;101418.47;5006725;28;20101;-61
2023/01/30 01:12:44;;;;;;;7.72;6.47;;;;;;;17.64;39.73;101421.16;5013056;28;20046;-59
2023/01/30 01:15:12;;;;;;;;;;;;;;;17.64;39.90;101405.03;5007057;28;20031;-58
2023/01/30 01:17:38;;;;;;;5.88;4.80;;;;;;;17.64;39.67;101421.16;5016598;28;19913;-59
2023/01/30 01:20:04;;;;;;;6.13;5.20;;;;;;;17.63;40.25;101400.66;5026503;28;20214;-58
2023/01/30 01:22:29;;;;;;;6.20;4.93;;;;;;;17.63;39.79;101392.59;5024877;28;20030;-59
2023/01/30 01:24:54;;;;;;;6.82;5.20;;;;;;;17.63;39.84;101394.44;5026187;28;20026;-58
2023/01/30 01:27:20;;;;;;;6.00;5.15;;;;;;;17.61;39.87;101388.34;5026120;28;20040;-59
2023/01/30 01:29:45;;;;;;;6.80;4.75;;;;;;;17.63;39.81;101392.59;5026083;28;20092;-59
2023/01/30 01:32:10;;;;;;;5.78;5.03;;;;;;;17.63;39.88;101386.38;5024833;28;20030;-57
2023/01/30 01:34:35;;;;;;;7.90;5.25;;;;;;;17.62;40.01;101379.28;5024346;28;20071;-57
2023/01/30 01:37:01;;;;;;;5.95;4.50;;;;;;;17.63;40.04;101372.91;5025533;28;20086;-56
2023/01/30 01:41:00;;;;;;;5.60;4.78;;;;;;;17.63;39.98;101365.69;5025537;28;20037;-59
2023/01/30 01:42:11;;;;;;;6.20;4.85;;;;;;;17.61;39.89;101364.97;5009675;28;20113;-58
2023/01/30 01:45:19;;;;;;;7.80;5.57;;;;;;;17.62;39.78;101369.34;5006214;28;20029;-58
2023/01/30 01:47:46;;;;;;;6.82;4.78;;;;;;;17.63;40.01;101389.06;4936845;29;20057;-55
2023/01/30 01:50:15;;;;;;;5.85;4.75;;;;;;;17.63;39.92;101389.91;4950256;29;20419;-60
2023/01/30 01:52:41;;;;;;;5.07;4.28;;;;;;;17.62;39.86;101385.50;4929976;29;20143;-60
2023/01/30 01:55:07;;;;;;;7.95;4.55;;;;;;;17.62;39.88;101393.56;4945691;29;20079;-58
2023/01/30 01:57:38;;;;;;;6.35;4.70;;;;;;;17.61;39.91;101386.50;4929557;29;20055;-59
2023/01/30 02:00:16;;;;;;;6.68;4.20;;;;;;;17.61;40.17;101378.44;4929850;29;20058;-60
2023/01/30 02:02:45;;;;;;;5.65;4.57;;;;;;;17.61;39.88;101380.28;4934008;29;20144;-59
2023/01/30 02:05:12;;;;;;;5.40;4.13;;;;;;;17.61;39.94;101378.44;4910376;29;20036;-59
2023/01/30 02:07:52;;;;;;;5.85;4.35;;;;;;;17.62;39.94;101368.50;4926359;29;20072;-59
2023/01/30 02:10:21;;;;;;;7.00;4.38;;;;;;;17.62;40.04;101368.50;4925377;29;20028;-58
2023/01/30 02:12:47;;;;;;;5.93;4.80;;;;;;;17.62;40.06;101363.97;4924769;29;20036;-60
2023/01/30 02:15:12;;;;;;;5.47;4.32;;;;;;;17.63;40.03;101364.84;4926298;29;20108;-59
2023/01/30 02:17:37;;;;;;;5.00;4.18;;;;;;;17.62;40.12;101352.38;4949083;28;20064;-60
2023/01/30 02:20:15;;;;;;;6.28;4.88;;;;;;;17.62;40.00;101365.81;5024985;28;20075;-60
2023/01/30 02:22:54;;;;;;;5.28;4.07;;;;;;;17.62;39.96;101358.59;5023502;28;20085;-60
2023/01/30 02:25:20;;;;;;;;;;;;;;;17.61;40.05;101358.75;5024245;28;20119;-59
2023/01/30 02:28:07;;;;;;;6.00;3.75;;;;;;;17.60;40.22;101346.31;5024257;28;19917;-60
2023/01/30 02:31:09;;;;;;;4.13;3.63;;;;;;;17.60;40.33;101343.63;5024493;28;20026;-59
2023/01/30 02:33:56;;;;;;;5.57;4.05;;;;;;;17.60;40.17;101340.94;5007106;28;20041;-58
2023/01/30 02:36:27;;;;;;;6.45;4.00;;;;;;;17.58;40.25;101332.16;4987658;28;20399;-60
2023/01/30 02:39:03;;;;;;;5.07;3.78;;;;;;;17.55;40.20;101327.94;5005066;28;20019;-57
2023/01/30 02:41:37;;;;;;;4.18;3.35;;;;;;;17.59;40.25;101340.09;5012449;28;20057;-60
2023/01/30 02:44:15;;;;;;;4.57;3.47;;;;;;;17.59;40.38;101333.88;5005276;28;20024;-60
2023/01/30 02:46:54;;;;;;;3.67;3.33;;;;;;;17.56;40.36;101329.63;4987123;28;20049;-60
2023/01/30 02:49:25;;;;;;;4.45;3.30;;;;;;;17.60;40.27;101330.19;4999220;28;20324;-59
2023/01/30 02:51:51;;;;;;;4.18;3.50;;;;;;;17.60;40.35;101335.56;5004986;28;20057;-60
2023/01/30 02:54:16;;;;;;;4.55;3.88;;;;;;;17.60;40.40;101338.25;5006894;28;20029;-57
2023/01/30 02:56:48;;;;;;;4.65;3.35;;;;;;;17.61;40.31;101346.16;5024412;28;20048;-57
2023/01/30 02:59:16;;;;;;;3.50;3.05;;;;;;;17.61;40.21;101335.41;5024746;28;20053;-59
2023/01/30 03:01:53;;;;;;;4.57;3.35;;;;;;;17.60;40.34;101333.72;5006021;28;20049;-59
2023/01/30 03:04:49;;;;;;;5.30;3.10;;;;;;;17.61;40.49;101330.03;5024298;28;20026;-56
2023/01/30 03:08:00;;;;;;;5.43;3.40;;;;;;;17.60;40.38;101327.50;5024088;28;20026;-58
2023/01/30 03:10:37;;;;;;;4.32;2.75;;;;;;;17.61;40.34;101331.88;4971144;28;20034;-58
2023/01/30 03:13:14;;;;;;;4.28;3.53;;;;;;;17.60;40.40;101322.13;4999096;28;20026;-57
2023/01/30 03:15:42;;;;;;;5.05;3.10;;;;;;;17.59;40.60;101313.22;4990465;28;20026;-58
2023/01/30 03:18:08;;;;;;;3.53;2.92;;;;;;;17.59;40.53;101326.66;5006443;28;20037;-59
2023/01/30 03:20:38;;;;;;;3.67;2.63;;;;;;;17.59;40.58;101312.38;5023736;28;20037;-59
2023/01/30 03:23:03;;;;;;;3.90;2.80;;;;;;;17.59;40.50;101310.53;5015192;28;20034;-59
2023/01/30 03:25:28;;;;;;;3.13;2.60;;;;;;;17.59;40.66;101305.16;5006618;28;20109;-59
2023/01/30 03:27:54;;;;;;;3.33;2.88;;;;;;;17.54;40.54;101298.50;5004627;28;20034;-60
2023/01/30 03:30:20;;;;;;;3.55;2.63;;;;;;;17.60;40.47;101306.00;4987173;28;20065;-59
2023/01/30 03:32:45;;;;;;;3.55;2.40;;;;;;;17.59;40.72;101304.31;5018611;28;20048;-60
2023/01/30 03:35:10;;;;;;;3.15;2.33;;;;;;;17.59;40.85;101302.47;5023527;28;20034;-60
2023/01/30 03:37:36;;;;;;;3.15;2.63;;;;;;;17.57;40.62;101299.06;5024025;28;20068;-59
2023/01/30 03:40:01;;;;;;;3.22;2.60;;;;;;;17.59;40.73;101299.78;5023935;28;20037;-60
2023/01/30 03:42:26;;;;;;;4.22;2.75;;;;;;;17.59;40.90;101296.25;5014801;28;20046;-61
2023/01/30 03:44:52;;;;;;;4.47;2.35;;;;;;;17.59;40.77;101297.09;4986584;28;20014;-60
2023/01/30 03:47:17;;;;;;;2.72;2.50;;;;;;;17.59;40.57;101297.09;5013033;28;20053;-60
2023/01/30 03:49:42;;;;;;;2.67;2.40;;;;;;;17.60;40.70;101296.09;5005475;28;20489;-59
2023/01/30 03:52:07;;;;;;;3.95;2.28;;;;;;;17.61;40.62;101299.59;5017094;28;20137;-59
2023/01/30 03:54:33;;;;;;;2.65;2.42;;;;;;;17.61;40.78;101296.91;5004126;28;20030;-60
2023/01/30 03:56:58;;;;;;;2.72;2.30;;;;;;;17.60;40.52;101297.94;5004159;28;20451;-61
2023/01/30 03:59:23;;;;;;;4.03;2.70;;;;;;;17.60;40.77;101303.31;4990339;28;20045;-59
2023/01/30 04:01:48;;;;;;;4.72;2.78;;;;;;;17.59;40.98;101298.94;5017867;28;20033;-60
2023/01/30 04:04:14;;;;;;;2.78;2.30;;;;;;;17.58;40.65;101300.75;5027444;28;20490;-60
2023/01/30 04:06:39;;;;;;;3.88;2.78;;;;;;;17.60;40.73;101300.63;5027423;28;20033;-59
2023/01/30 04:09:04;;;;;;;2.90;1.95;;;;;;;17.59;40.74;101313.22;5027677;28;20033;-59
2023/01/30 04:11:30;;;;;;;3.35;2.40;;;;;;;17.58;40.93;101303.44;5026818;28;20364;-60
2023/01/30 04:13:55;;;;;;;2.80;2.35;;;;;;;17.59;40.97;101305.16;5010850;28;20072;-61
2023/01/30 04:16:23;;;;;;;4.03;2.10;;;;;;;17.59;40.67;101305.16;5010722;28;20049;-60
2023/01/30 04:18:48;;;;;;;3.90;2.75;;;;;;;17.58;41.06;101306.13;5027680;28;20029;-61
2023/01/30 04:21:13;;;;;;;2.20;1.80;;;;;;;17.58;40.86;101299.91;5025523;28;20391;-60
2023/01/30 04:23:39;;;;;;;4.10;2.60;;;;;;;17.59;40.97;101307.84;5026559;28;20033;-61
2023/01/30 04:26:04;;;;;;;4.15;2.30;;;;;;;17.59;40.96;101305.16;5026834;28;20499;-59
2023/01/30 04:28:30;;;;;;;4.25;2.65;;;;;;;17.58;40.80;101302.59;5027209;28;20034;-59
2023/01/30 04:30:55;;;;;;;2.42;2.10;;;;;;;17.58;40.94;101298.06;5026884;28;20053;-60
2023/01/30 04:33:21;;;;;;;3.17;2.03;;;;;;;17.58;40.98;101300.75;5026806;28;20044;-61
2023/01/30 04:35:58;;;;;;;4.05;2.00;;;;;;;17.59;40.96;101298.94;5026595;28;20085;-61
2023/01/30 04:38:24;;;;;;;2.22;2.00;;;;;;;17.59;40.93;101290.88;5026331;28;20416;-61
2023/01/30 04:40:51;;;;;;;3.53;2.13;;;;;;;17.58;40.86;101297.22;5026464;28;20022;-59
2023/01/30 04:43:17;;;;;;;3.83;2.10;;;;;;;17.59;40.98;101290.88;5026139;28;20124;-60
2023/01/30 04:45:45;;;;;;;3.75;2.17;;;;;;;17.60;40.92;101289.84;5027076;28;20025;-60
2023/01/30 04:48:11;;;;;;;3.10;2.08;;;;;;;17.59;40.87;101293.56;5027110;28;20026;-60
2023/01/30 04:50:37;;;;;;;3.47;2.35;;;;;;;17.58;40.87;101292.69;5024353;28;20038;-60
2023/01/30 04:53:03;;;;;;;3.95;2.00;;;;;;;17.58;40.90;101290.00;5006727;28;20416;-60
2023/01/30 04:55:28;;;;;;;3.35;1.88;;;;;;;17.58;41.14;101283.78;5007221;28;20160;-60
2023/01/30 04:57:54;;;;;;;2.95;1.70;;;;;;;17.57;40.93;101284.78;5007012;28;20065;-60
2023/01/30 05:00:19;;;;;;;3.80;1.70;;;;;;;17.57;40.99;101290.16;5007175;28;20032;-59
2023/01/30 05:02:44;;;;;;;3.20;2.42;;;;;;;17.59;40.93;101290.88;5018203;28;20026;-60
2023/01/30 05:05:10;;;;;;;5.13;2.40;;;;;;;17.57;40.93;101293.69;5006802;28;20439;-60
2023/01/30 05:07:35;;;;;;;3.75;2.40;;;;;;;17.54;41.21;101279.69;5016535;28;20084;-59
2023/01/30 05:10:01;;;;;;;3.22;2.20;;;;;;;17.58;41.26;101289.16;5026510;28;20073;-60
2023/01/30 05:12:27;;;;;;;5.70;2.22;;;;;;;17.52;41.27;101277.16;5011095;28;20034;-59
2023/01/30 05:14:52;;;;;;;5.85;2.85;;;;;;;17.60;41.32;101279.09;5005570;28;20030;-61
2023/01/30 05:17:17;;;;;;;3.33;2.10;;;;;;;17.58;41.11;101281.91;4994865;28;20088;-61
2023/01/30 05:19:43;;;;;;;2.85;2.15;;;;;;;17.63;41.28;101294.94;5026252;28;20040;-59
2023/01/30 05:22:08;;;;;;;3.63;1.80;;;;;;;17.65;41.35;101293.78;5023486;28;20109;-57
2023/01/30 05:24:33;;;;;;;3.15;2.25;;;;;;;17.60;41.46;101274.56;5021891;28;20030;-58
2023/01/30 05:26:58;;;;;;;5.22;2.25;;;;;;;17.68;41.34;101274.66;5006476;28;20113;-60
2023/01/30 05:29:24;;;;;;;2.97;2.05;;;;;;;17.68;41.64;101281.88;5025867;28;20029;-61
2023/01/30 05:31:49;;;;;;;3.05;1.83;;;;;;;17.69;41.84;101295.16;5026062;28;20038;-61
2023/01/30 05:34:14;;;;;;;2.67;1.83;;;;;;;17.68;42.20;101292.63;5025538;28;20458;-61
2023/01/30 05:36:39;;;;;;;4.72;2.00;;;;;;;17.68;42.16;101292.63;5023769;28;20034;-59
2023/01/30 05:39:05;;;;;;;5.13;2.10;;;;;;;17.68;42.18;101301.56;5025306;28;20034;-61
2023/01/30 05:41:30;;;;;;;5.07;2.05;;;;;;;17.70;42.31;101298.69;5025073;28;20080;-61
2023/01/30 05:43:55;;;;;;;4.05;2.20;;;;;;;17.70;42.32;101299.53;5006879;28;20037;-59
2023/01/30 05:46:20;;;;;;;4.57;2.35;;;;;;;17.72;42.15;101300.25;5023170;28;20052;-60
2023/01/30 05:48:46;;;;;;;3.50;1.70;;;;;;;17.74;42.11;101303.66;5025525;28;20030;-60
2023/01/30 05:51:19;;;;;;;3.35;1.83;;;;;;;17.72;42.30;101311.00;5025414;28;20025;-60
2023/01/30 05:53:44;;;;;;;4.50;2.05;;;;;;;17.74;42.48;101310.88;5023762;28;20061;-59
2023/01/30 05:56:10;;;;;;;4.35;2.15;;;;;;;17.74;42.31;101322.47;5021456;28;20639;-59
2023/01/30 05:58:35;;;;;;;6.40;2.50;;;;;;;17.74;42.22;101318.94;5022352;28;20033;-58
2023/01/30 06:01:05;;;;;;;4.25;2.10;;;;;;;17.75;42.36;101315.25;5023455;28;20026;-58
2023/01/30 06:03:31;;;;;;;5.90;2.38;;;;;;;17.76;42.32;101313.44;5024934;28;20025;-60
2023/01/30 06:05:56;;;;;;;5.00;2.42;;;;;;;17.77;42.35;101317.81;5021476;28;20363;-59
2023/01/30 06:08:22;;;;;;;6.07;2.38;;;;;;;17.77;42.36;101315.13;5020030;28;20030;-59
2023/01/30 06:10:47;;;;;;;6.90;2.55;;;;;;;17.78;41.63;101325.72;5022584;28;20035;-59
2023/01/30 06:13:12;;;;;;;3.22;1.90;;;;;;;17.77;42.39;101337.47;5024544;28;20065;-59
2023/01/30 06:15:38;;;;;;;4.32;2.00;;;;;;;17.77;42.23;101328.56;5023124;28;20034;-59
2023/01/30 06:18:03;;;;;;;4.57;2.33;;;;;;;17.77;42.47;101336.63;5024702;28;20531;-60
2023/01/30 06:20:29;;;;;;;3.83;1.95;;;;;;;17.78;42.60;101339.16;5023581;28;20026;-59
2023/01/30 06:22:54;;;;;;;4.85;2.05;;;;;;;17.80;42.30;101341.69;5022229;28;20026;-60
2023/01/30 06:25:19;;;;;;;4.45;2.00;;;;;;;17.80;42.26;101355.13;5004094;28;20026;-61
2023/01/30 06:27:45;;;;;;;5.15;1.92;;;;;;;17.80;42.34;101349.75;5005842;28;20522;-61
2023/01/30 06:30:11;;;;;;;3.20;1.73;;;;;;;17.81;42.29;101351.47;5024737;28;20049;-61
2023/01/30 06:32:36;;;;;;;5.68;1.92;;;;;;;17.80;42.44;101356.00;5016282;28;20087;-60
2023/01/30 06:35:01;;;;;;;4.60;2.60;;;;;;;17.82;42.39;101348.63;5015978;28;20491;-60
2023/01/30 06:37:27;;;;;;;4.60;2.03;;;;;;;17.84;42.38;101346.66;5002155;28;20062;-59
2023/01/30 06:39:52;;;;;;;4.85;2.28;;;;;;;17.90;42.54;101345.19;5017948;28;20030;-61
2023/01/30 06:42:17;;;;;;;3.28;1.77;;;;;;;17.91;42.54;101339.66;5018869;28;20054;-61
2023/01/30 06:44:42;;;;;;;5.65;2.25;;;;;;;17.95;42.39;101337.50;5021411;28;20030;-53
2023/01/30 06:47:08;;;;;;;5.80;2.03;;;;;;;17.99;42.14;101347.81;5012149;28;20037;-57
2023/01/30 06:49:33;;;;;;;7.65;2.00;;;;;;;18.03;42.05;101350.19;5020916;28;20040;-60
2023/01/30 06:51:58;;;;;;;3.47;1.70;;;;;;;18.03;41.88;101358.28;5019864;28;20056;-61
2023/01/30 06:54:23;;;;;;;5.22;2.30;;;;;;;17.99;41.91;101358.56;5010819;28;20399;-58
2023/01/30 06:56:49;;;;;;;6.32;2.03;;;;;;;18.01;41.92;101363.81;5013657;28;20026;-61
2023/01/30 06:59:14;;;;;;;5.05;2.13;;;;;;;18.01;41.84;101361.13;5011104;28;20029;-61
2023/01/30 07:01:39;;;;;;;5.22;2.33;;;;;;;17.98;41.75;101370.34;5012735;28;20032;-61
2023/01/30 07:04:04;;;;;;;5.82;2.47;;;;;;;17.97;41.63;101359.75;5012506;28;20459;-58
2023/01/30 07:06:30;;;;;;;4.32;1.98;;;;;;;17.96;41.84;101371.47;5011658;28;20022;-60
2023/01/30 07:08:57;;;;;;;6.72;2.53;;;;;;;17.93;41.78;101372.66;5010549;28;20030;-60
2023/01/30 07:11:23;;;;;;;7.10;1.95;;;;;;;17.93;41.67;101377.19;5012205;28;20022;-61
2023/01/30 07:13:48;;;;;;;5.53;2.30;;;;;;;17.97;41.59;101383.94;5013924;28;20112;-60
2023/01/30 07:16:13;;;;;;;6.22;2.00;;;;;;;17.94;41.68;101382.41;5016820;28;20049;-58
2023/01/30 07:18:38;;;;;;;5.18;2.15;;;;;;;17.93;41.63;101386.09;5017970;28;20027;-58
2023/01/30 07:21:04;;;;;;;5.88;2.25;;;;;;;17.95;41.47;101372.47;5014096;28;20040;-61
2023/01/30 07:23:29;;;;;;;6.68;2.30;;;;;;;17.96;41.72;101380.38;5011081;28;20014;-61
2023/01/30 07:25:54;;;;;;;5.38;2.65;;;;;;;17.96;41.40;101377.69;5011966;28;20022;-60
2023/01/30 07:28:20;;;;;;;6.70;2.22;;;;;;;17.90;41.40;101377.47;5012831;28;20040;-61
2023/01/30 07:30:45;;;;;;;8.00;2.67;;;;;;;17.97;41.19;101383.94;5012229;28;20024;-61
2023/01/30 07:33:10;;;;;;;6.68;2.15;;;;;;;17.95;41.31;101376.00;5010242;28;20534;-61
2023/01/30 07:35:36;;;;;;;4.20;2.05;;;;;;;17.96;41.24;101382.22;5011221;28;20034;-61
2023/01/30 07:38:02;;;;;;;7.43;2.10;;;;;;;17.96;40.99;101387.63;5009592;28;20379;-61
2023/01/30 07:40:28;;;;;;;4.97;2.08;;;;;;;17.95;41.43;101381.41;5013091;28;20618;-62
2023/01/30 07:43:01;;;;;;;6.10;2.30;;;;;;;17.94;41.02;101384.25;5013202;28;20586;-62
2023/01/30 07:45:37;;;;;;;5.90;2.13;;;;;;;17.91;40.93;101389.91;5010162;28;20025;-61
2023/01/30 07:48:02;;;;;;;4.43;2.10;;;;;;;17.88;41.29;101388.41;4995203;28;20032;-61
2023/01/30 07:50:28;;;;;;;5.13;2.35;;;;;;;17.90;41.09;101399.84;5015621;28;20081;-61
2023/01/30 07:52:53;;;;;;;6.10;2.30;;;;;;;17.94;40.81;101403.06;5011285;28;20040;-61
2023/01/30 07:55:18;;;;;;;7.50;2.30;;;;;;;17.92;40.61;101400.50;5012058;28;20096;-61
2023/01/30 07:57:44;;;;;;;7.18;2.60;;;;;;;17.97;40.81;101405.47;5011357;28;20046;-62
2023/01/30 08:00:09;;;;;;;6.00;2.55;;;;;;;17.98;40.78;101408.00;5022280;28;20026;-61
2023/01/30 08:02:35;;;;;;;4.85;2.13;;;;;;;17.99;40.56;101412.38;5021324;28;20104;-61
2023/01/30 08:05:00;;;;;;;9.82;3.03;;;;;;;17.99;40.52;101409.69;5011829;28;20116;-60
2023/01/30 08:07:26;;;;;;;8.23;2.55;;;;;;;17.97;40.65;101419.78;5011395;28;20026;-60
2023/01/30 08:09:51;;;;;;;5.53;2.20;;;;;;;17.96;40.68;101420.75;5011726;28;20083;-61
2023/01/30 08:12:16;;;;;;;8.40;2.65;;;;;;;17.94;40.46;101417.38;5011952;28;20025;-61
2023/01/30 08:14:41;;;;;;;7.47;2.85;;;;;;;17.95;40.66;101413.69;5012698;28;20086;-60
2023/01/30 08:17:07;;;;;;;6.43;2.28;;;;;;;17.97;40.46;101406.31;5011693;28;20483;-60
2023/01/30 08:19:32;;;;;;;7.47;3.47;;;;;;;17.97;40.19;101408.16;5010951;28;20101;-61
2023/01/30 08:21:58;;;;;;;6.25;2.83;;;;;;;17.99;40.31;101406.16;5014409;28;20094;-59
2023/01/30 08:24:23;;;;;;;6.65;1.98;;;;;;;18.01;39.92;101396.09;5012076;28;20023;-60
2023/01/30 08:26:48;;;;;;;8.63;3.08;;;;;;;18.01;39.99;101414.06;5021953;28;20490;-60
2023/01/30 08:29:14;;;;;;;7.80;2.65;;;;;;;17.97;40.11;101419.78;5021178;28;20061;-61
2023/01/30 08:31:39;;;;;;;6.10;2.20;;;;;;;18.01;39.66;101425.72;5022533;28;20033;-61
2023/01/30 08:34:04;;;;;;;8.00;2.50;;;;;;;18.03;40.00;101428.22;5020707;28;20097;-61
2023/01/30 08:36:29;;;;;;;8.38;2.88;;;;;;;18.04;39.70;101436.16;5019216;28;20124;-61
2023/01/30 08:38:55;;;;;;;7.03;2.83;;;;;;;18.04;39.64;101436.16;5017656;28;20109;-58
2023/01/30 08:41:20;;;;;;;8.98;2.78;;;;;;;18.04;39.67;101440.69;5021847;28;20495;-61
2023/01/30 08:43:45;;;;;;;8.07;3.42;;;;;;;18.03;39.85;101452.44;5022813;28;20033;-61
2023/01/30 08:46:11;;;;;;;7.30;2.80;;;;;;;18.01;39.79;101467.88;5023149;28;20053;-62
2023/01/30 08:48:39;;;;;;;7.20;3.13;;;;;;;17.98;39.63;101477.13;5018347;28;20030;-61
2023/01/30 08:51:04;;;;;;;8.73;3.70;;;;;;;17.96;39.49;101474.56;5022819;28;20095;-61
2023/01/30 08:53:29;;;;;;;8.02;3.85;;;;;;;17.97;39.54;101470.88;5016159;28;20117;-61
2023/01/30 08:55:55;;;;;;;9.07;3.40;;;;;;;17.97;39.72;101468.19;5014798;28;20053;-61
2023/01/30 08:58:20;;;;;;;9.05;3.65;;;;;;;17.96;39.93;101473.72;5016316;28;20024;-61
2023/01/30 09:00:46;;;;;;;8.32;2.53;;;;;;;17.96;39.93;101466.47;5014056;28;20030;-59
2023/01/30 09:03:13;;;;;;;7.05;2.78;;;;;;;17.89;39.81;101462.72;5012522;28;20356;-61
2023/01/30 09:05:38;;;;;;;12.88;3.63;;;;;;;17.96;39.89;101474.56;5014402;28;20094;-57
2023/01/30 09:08:04;;;;;;;10.07;4.38;;;;;;;17.96;39.83;101473.72;5017622;28;20037;-61
2023/01/30 09:10:29;;;;;;;10.80;4.40;;;;;;;17.96;39.95;101463.78;5013970;28;20121;-59
2023/01/30 09:12:55;;;;;;;8.57;3.90;;;;;;;17.96;39.86;101463.78;5017155;28;20038;-60
2023/01/30 09:15:20;;;;;;;12.57;5.00;;;;;;;17.97;39.71;101478.13;5014807;28;20041;-60
2023/01/30 09:17:45;;;;;;;10.10;4.20;;;;;;;17.98;39.98;101475.28;5015839;28;20033;-60
2023/01/30 09:20:11;;;;;;;10.65;4.70;;;;;;;18.00;39.76;101475.09;5015076;28;20034;-57
2023/01/30 09:22:36;;;;;;;12.38;5.20;;;;;;;18.01;39.92;101481.34;5016089;28;20094;-62
2023/01/30 09:25:03;;;;;;;10.32;5.25;;;;;;;18.01;39.94;101475.94;5016977;28;20030;-59
2023/01/30 09:27:28;;;;;;;10.32;5.20;;;;;;;18.01;39.54;101476.81;5012238;28;20063;-61
2023/01/30 09:29:54;;;;;;;13.15;5.55;;;;;;;18.02;39.78;101474.97;5015420;28;20541;-57
2023/01/30 09:32:19;;;;;;;10.73;5.22;;;;;;;18.01;40.03;101471.44;5012672;28;20061;-61
2023/01/30 09:34:44;;;;;;;12.18;5.13;;;;;;;18.02;40.11;101472.28;5017533;28;20026;-59
2023/01/30 09:37:09;;;;;;;9.27;5.47;;;;;;;18.00;40.04;101480.50;5021572;28;20558;-59
2023/01/30 09:39:35;;;;;;;13.80;6.13;;;;;;;18.04;39.93;101486.44;5021130;28;20052;-59
2023/01/30 09:42:03;;;;;;;15.23;6.72;;;;;;;18.05;40.13;101488.13;5012364;28;20053;-60
2023/01/30 09:44:31;;;;;;;12.00;6.57;;;;;;;18.11;40.07;101503.69;5006736;28;20082;-58
2023/01/30 09:47:11;;;;;;;13.80;6.78;;;;;;;18.13;40.07;101505.22;5025578;28;20030;-60
2023/01/30 09:49:46;;;;;;;13.13;6.18;;;;;;;18.17;39.96;101495.84;5025780;28;20490;-61
2023/01/30 09:52:33;;;;;;;10.95;6.00;;;;;;;18.19;39.75;101501.94;5023518;28;20026;-61
2023/01/30 09:55:16;;;;;;;10.48;5.72;;;;;;;18.19;39.77;101509.16;4989118;28;20057;-60
2023/01/30 09:57:42;;;;;;;10.05;5.38;;;;;;;18.17;39.78;101505.75;5025638;28;20129;-61
2023/01/30 10:00:11;;;;;;;12.43;6.22;;;;;;;18.16;39.79;101518.38;5008135;28;20026;-58
2023/01/30 10:03:07;;;;;;;11.02;6.05;;;;;;;18.15;39.78;101510.47;5023369;28;20057;-60
2023/01/30 10:05:50;;;;;;;9.23;5.40;;;;;;;18.13;39.75;101515.97;5023479;28;20028;-61
2023/01/30 10:08:42;;;;;;;13.18;6.55;;;;;;;18.11;39.98;101512.59;5023754;28;20068;-60
2023/01/30 10:11:10;;;;;;;12.10;5.45;;;;;;;18.12;39.72;101514.28;5007697;28;20049;-60
2023/01/30 10:13:52;;;;;;;9.30;5.15;;;;;;;18.12;39.76;101524.22;5024690;28;20038;-60
2023/01/30 10:16:32;;;;;;;9.82;5.63;;;;;;;18.13;39.87;101515.97;5007732;28;20022;-60
2023/01/30 10:19:18;;;;;;;10.38;5.63;;;;;;;18.12;39.94;101519.66;5008104;28;20105;-62
2023/01/30 10:21:51;;;;;;;9.88;5.47;;;;;;;18.14;39.67;101508.78;5022431;28;20049;-60
2023/01/30 10:24:32;;;;;;;9.98;4.88;;;;;;;18.14;39.97;101512.31;5024686;28;20030;-61
2023/01/30 10:26:57;;;;;;;11.73;4.90;;;;;;;18.14;39.80;101511.47;5004644;28;20085;-60
2023/01/30 10:29:33;;;;;;;9.05;4.28;;;;;;;18.15;39.85;101523.91;5025257;28;20041;-60
2023/01/30 10:32:30;;;;;;;10.45;5.50;;;;;;;18.14;39.61;101522.22;5025255;28;20057;-59
2023/01/30 10:35:00;;;;;;;10.88;5.13;;;;;;;18.13;39.68;101526.72;5020746;28;20037;-61
2023/01/30 10:37:32;;;;;;;11.02;5.40;;;;;;;18.12;39.72;101521.50;5007655;28;20018;-61
2023/01/30 10:40:06;;;;;;;8.23;4.72;;;;;;;18.14;39.65;101530.31;5007139;28;20082;-61
2023/01/30 10:42:45;;;;;;;14.70;6.00;;;;;;;18.14;39.62;101536.53;5007826;28;20050;-60
2023/01/30 10:45:12;;;;;;;;;;;;;;;18.15;39.51;101526.59;5008336;28;20060;-60
2023/01/30 10:47:51;;;;;;;11.32;5.07;;;;;;;18.16;39.58;101528.28;5007965;28;19913;-61
2023/01/30 10:50:40;;;;;;;10.02;5.13;;;;;;;18.16;39.15;101534.53;5024792;28;20100;-59
2023/01/30 10:53:17;;;;;;;9.65;4.43;;;;;;;18.16;38.98;101542.59;5022878;28;20036;-61
2023/01/30 10:56:01;;;;;;;7.47;4.18;;;;;;;18.15;39.13;101537.38;5001089;28;20026;-61
2023/01/30 10:58:43;;;;;;;10.77;5.30;;;;;;;18.18;39.26;101539.75;5008376;28;20112;-61
2023/01/30 11:01:17;;;;;;;9.13;4.75;;;;;;;18.18;39.17;101539.75;5007275;28;20081;-60
2023/01/30 11:04:20;;;;;;;10.55;5.40;;;;;;;18.20;39.11;101544.00;5022318;28;20026;-61
2023/01/30 11:06:46;;;;;;;13.43;5.88;;;;;;;18.23;39.12;101538.31;5011419;28;20034;-62
2023/01/30 11:09:11;;;;;;;11.25;5.32;;;;;;;18.27;39.25;101538.88;5024932;28;20028;-61
2023/01/30 11:11:50;;;;;;;11.25;4.70;;;;;;;18.33;39.04;101534.72;5024820;28;20037;-62
2023/01/30 11:14:16;;;;;;;10.38;4.43;;;;;;;18.35;39.26;101535.41;5006764;28;20026;-61
2023/01/30 11:16:53;;;;;;;9.82;4.32;;;;;;;18.34;39.04;101529.19;5024609;28;20037;-61
2023/01/30 11:19:21;;;;;;;8.82;4.47;;;;;;;18.34;39.27;101539.13;5024749;28;20391;-61
2023/01/30 11:21:52;;;;;;;8.77;4.22;;;;;;;18.17;39.04;101527.28;5003864;28;20025;-60
2023/01/30 11:24:20;;;;;;;9.70;4.18;;;;;;;18.29;39.18;101550.34;5006713;28;20521;-62
2023/01/30 11:26:46;;;;;;;11.20;4.93;;;;;;;18.31;39.36;101556.44;5007100;28;20022;-61
2023/01/30 11:29:16;;;;;;;11.23;4.70;;;;;;;18.32;39.51;101557.28;5024499;28;20396;-61
2023/01/30 11:31:41;;;;;;;10.38;4.90;;;;;;;18.31;39.07;101550.16;5006298;28;20037;-61
2023/01/30 11:34:14;;;;;;;8.57;4.13;;;;;;;18.31;39.37;101561.81;5023607;28;20364;-60
2023/01/30 11:36:40;;;;;;;8.43;4.63;;;;;;;18.31;39.45;101553.75;5021996;28;20490;-61